createdAt,value
2023-10-26T00:01:13.641Z,23.80
2023-10-26T00:03:41.517Z,23.80
2023-10-26T00:06:10.700Z,23.80
2023-10-26T00:08:38.496Z,23.80
2023-10-26T00:11:06.801Z,23.80
2023-10-26T00:13:34.610Z,23.80
2023-10-26T00:16:02.426Z,23.80
2023-10-26T00:18:30.244Z,23.80
2023-10-26T00:20:59.249Z,23.80
2023-10-26T00:23:28.666Z,23.80
2023-10-26T00:25:56.465Z,23.80
2023-10-26T00:28:24.276Z,23.70
2023-10-26T00:30:52.092Z,23.80
2023-10-26T00:33:19.939Z,23.80
2023-10-26T00:35:47.816Z,23.70
2023-10-26T00:38:15.566Z,23.70
2023-10-26T00:40:46.217Z,23.70
2023-10-26T00:43:21.237Z,23.70
2023-10-26T00:45:51.595Z,23.80
2023-10-26T00:48:19.736Z,23.80
2023-10-26T00:50:48.396Z,23.70
2023-10-26T00:53:17.094Z,23.70
2023-10-26T00:55:50.931Z,23.70
2023-10-26T00:58:20.204Z,23.70
2023-10-26T01:00:48.080Z,23.80
2023-10-26T01:03:16.335Z,23.70
2023-10-26T01:05:44.130Z,23.70
2023-10-26T01:08:12.115Z,23.70
2023-10-26T01:10:39.957Z,23.70
2023-10-26T01:13:10.709Z,23.70
2023-10-26T01:15:38.483Z,23.70
2023-10-26T01:18:08.042Z,23.70
2023-10-26T01:20:35.918Z,23.70
2023-10-26T01:23:05.088Z,23.70
2023-10-26T01:25:32.872Z,23.70
2023-10-26T01:28:00.698Z,23.70
2023-10-26T01:30:29.330Z,23.70
2023-10-26T01:32:57.392Z,23.70
2023-10-26T01:35:25.302Z,23.70
2023-10-26T01:37:53.154Z,23.70
2023-10-26T01:40:22.263Z,23.70
2023-10-26T01:42:50.022Z,23.70
2023-10-26T01:45:17.819Z,23.70
2023-10-26T01:47:45.622Z,23.70
2023-10-26T01:50:13.451Z,23.70
2023-10-26T01:52:41.257Z,23.70
2023-10-26T01:55:09.772Z,23.70
2023-10-26T01:57:38.872Z,23.70
2023-10-26T02:00:09.784Z,23.70
2023-10-26T02:02:40.593Z,23.70
2023-10-26T02:05:09.403Z,23.70
2023-10-26T02:07:37.257Z,23.70
2023-10-26T02:10:05.413Z,23.70
2023-10-26T02:12:33.180Z,23.70
2023-10-26T02:15:02.262Z,23.70
2023-10-26T02:17:30.185Z,23.70
2023-10-26T02:19:58.301Z,23.70
2023-10-26T02:22:26.138Z,23.70
2023-10-26T02:24:53.869Z,23.70
2023-10-26T02:27:21.875Z,23.70
2023-10-26T02:29:50.137Z,23.70
2023-10-26T02:32:19.697Z,23.70
2023-10-26T02:34:47.873Z,23.70
2023-10-26T02:37:18.301Z,23.70
2023-10-26T02:39:46.079Z,23.60
2023-10-26T02:42:15.188Z,23.70
2023-10-26T02:44:43.175Z,23.60
2023-10-26T02:47:11.092Z,23.60
2023-10-26T02:49:40.227Z,23.70
2023-10-26T02:52:08.897Z,23.70
2023-10-26T02:54:37.284Z,23.60
2023-10-26T02:57:05.537Z,23.70
2023-10-26T02:59:33.385Z,23.70
2023-10-26T03:02:01.165Z,23.60
2023-10-26T03:04:29.093Z,23.60
2023-10-26T03:06:58.935Z,23.60
2023-10-26T03:09:26.897Z,23.70
2023-10-26T03:11:54.853Z,23.60
2023-10-26T03:14:22.656Z,23.60
2023-10-26T03:16:50.678Z,23.60
2023-10-26T03:19:18.483Z,23.60
2023-10-26T03:21:46.303Z,23.60
2023-10-26T03:24:15.444Z,23.60
2023-10-26T03:26:43.225Z,23.60
2023-10-26T03:29:10.970Z,23.60
2023-10-26T03:31:39.470Z,23.60
2023-10-26T03:34:07.238Z,23.60
2023-10-26T03:36:35.170Z,23.60
2023-10-26T03:39:03.063Z,23.60
2023-10-26T03:41:32.264Z,23.60
2023-10-26T03:44:00.288Z,23.60
2023-10-26T03:46:28.291Z,23.60
2023-10-26T03:48:56.067Z,23.60
2023-10-26T03:51:23.897Z,23.60
2023-10-26T03:53:51.654Z,23.60
2023-10-26T03:56:19.476Z,23.60
2023-10-26T03:58:49.039Z,23.60
2023-10-26T04:01:16.819Z,23.60
2023-10-26T04:03:44.621Z,23.60
2023-10-26T04:06:12.480Z,23.60
2023-10-26T04:08:40.288Z,23.60
2023-10-26T04:11:08.134Z,23.60
2023-10-26T04:13:36.460Z,23.60
2023-10-26T04:16:08.833Z,23.60
2023-10-26T04:18:36.750Z,23.60
2023-10-26T04:21:05.473Z,23.60
2023-10-26T04:23:33.364Z,23.60
2023-10-26T04:26:01.107Z,23.60
2023-10-26T04:28:28.855Z,23.60
2023-10-26T04:30:56.587Z,23.60
2023-10-26T04:33:25.715Z,23.60
2023-10-26T04:35:53.657Z,23.60
2023-10-26T04:38:21.416Z,23.60
2023-10-26T04:40:49.525Z,23.60
2023-10-26T04:43:17.264Z,23.60
2023-10-26T04:45:45.120Z,23.60
2023-10-26T04:48:12.982Z,23.60
2023-10-26T04:50:42.092Z,23.60
2023-10-26T04:53:09.877Z,23.50
2023-10-26T04:55:37.773Z,23.60
2023-10-26T04:58:05.714Z,23.60
2023-10-26T05:00:33.682Z,23.50
2023-10-26T05:03:01.654Z,23.60
2023-10-26T05:05:29.433Z,23.60
2023-10-26T05:07:58.747Z,23.60
2023-10-26T05:10:26.515Z,23.60
2023-10-26T05:12:54.375Z,23.60
2023-10-26T05:15:22.236Z,23.60
2023-10-26T05:17:50.141Z,23.60
2023-10-26T05:20:18.019Z,23.50
2023-10-26T05:22:45.830Z,23.60
2023-10-26T05:25:15.018Z,23.50
2023-10-26T05:27:43.050Z,23.60
2023-10-26T05:30:11.101Z,23.60
2023-10-26T05:32:39.963Z,23.50
2023-10-26T05:35:08.258Z,23.60
2023-10-26T05:37:36.289Z,23.60
2023-10-26T05:40:05.504Z,23.60
2023-10-26T05:42:36.252Z,23.60
2023-10-26T05:45:04.197Z,23.60
2023-10-26T05:47:32.030Z,23.60
2023-10-26T05:49:59.982Z,23.60
2023-10-26T05:52:27.744Z,23.60
2023-10-26T05:54:56.191Z,23.60
2023-10-26T05:57:24.069Z,23.60
2023-10-26T05:59:53.263Z,23.60
2023-10-26T06:02:22.434Z,23.60
2023-10-26T06:04:50.455Z,23.60
2023-10-26T06:07:18.205Z,23.60
2023-10-26T06:09:45.960Z,23.50
2023-10-26T06:12:14.247Z,23.60
2023-10-26T06:14:42.197Z,23.60
2023-10-26T06:17:11.648Z,23.60
2023-10-26T06:19:39.389Z,23.60
2023-10-26T06:22:07.146Z,23.50
2023-10-26T06:24:34.986Z,23.50
2023-10-26T06:27:04.020Z,23.50
2023-10-26T06:29:31.889Z,23.50
2023-10-26T06:31:59.735Z,23.50
2023-10-26T06:34:29.845Z,23.50
2023-10-26T06:36:57.610Z,23.50
2023-10-26T06:39:25.539Z,23.50
2023-10-26T06:41:53.386Z,23.50
2023-10-26T06:44:24.548Z,23.50
2023-10-26T06:46:52.307Z,23.50
2023-10-26T06:49:29.602Z,23.50
2023-10-26T06:52:00.786Z,23.50
2023-10-26T06:54:28.577Z,23.50
2023-10-26T06:56:57.731Z,23.50
2023-10-26T06:59:25.470Z,23.50
2023-10-26T07:02:08.868Z,23.50
2023-10-26T07:04:38.547Z,23.50
2023-10-26T07:07:09.138Z,23.50
2023-10-26T07:09:37.925Z,23.50
2023-10-26T07:12:06.230Z,23.50
2023-10-26T07:14:35.298Z,23.50
2023-10-26T07:17:03.165Z,23.50
2023-10-26T07:19:30.951Z,23.50
2023-10-26T07:21:58.744Z,23.50
2023-10-26T07:24:28.414Z,23.50
2023-10-26T07:26:56.254Z,23.50
2023-10-26T07:29:24.011Z,23.50
2023-10-26T07:31:51.950Z,23.50
2023-10-26T07:34:19.775Z,23.50
2023-10-26T07:36:47.561Z,23.50
2023-10-26T07:39:45.540Z,23.50
2023-10-26T07:42:07.731Z,23.50
2023-10-26T07:44:39.965Z,23.50
2023-10-26T07:47:09.608Z,23.50
2023-10-26T07:49:37.639Z,23.50
2023-10-26T07:52:06.122Z,23.50
2023-10-26T07:54:34.066Z,23.50
2023-10-26T07:57:01.909Z,23.50
2023-10-26T07:59:32.546Z,23.50
2023-10-26T08:02:00.918Z,23.60
2023-10-26T08:04:33.235Z,23.50
2023-10-26T08:07:01.874Z,23.50
2023-10-26T08:09:33.789Z,23.60
2023-10-26T08:12:01.858Z,23.50
2023-10-26T08:16:05.953Z,23.50
2023-10-26T08:17:20.169Z,23.60
2023-10-26T08:19:48.143Z,23.60
2023-10-26T08:22:15.915Z,23.60
2023-10-26T08:24:43.775Z,23.60
2023-10-26T08:27:11.715Z,23.60
2023-10-26T08:29:39.502Z,23.60
2023-10-26T08:32:07.679Z,23.60
2023-10-26T08:34:36.897Z,23.50
2023-10-26T08:39:36.391Z,23.60
2023-10-26T08:42:05.203Z,23.60
2023-10-26T08:44:34.253Z,23.60
2023-10-26T08:47:05.275Z,23.60
2023-10-26T08:49:34.313Z,23.60
2023-10-26T08:52:04.922Z,23.60
2023-10-26T08:54:32.749Z,23.60
2023-10-26T08:57:07.522Z,23.60
2023-10-26T08:59:35.542Z,23.60
2023-10-26T09:02:03.501Z,23.60
2023-10-26T09:04:31.525Z,23.60
2023-10-26T09:06:59.593Z,23.60
2023-10-26T09:09:28.699Z,23.60
2023-10-26T09:12:10.431Z,23.60
2023-10-26T09:14:38.253Z,23.60
2023-10-26T09:17:06.176Z,23.60
2023-10-26T09:19:41.982Z,23.60
2023-10-26T09:22:13.429Z,23.60
2023-10-26T09:24:42.738Z,23.60
2023-10-26T09:27:19.085Z,23.60
2023-10-26T09:29:48.340Z,23.60
2023-10-26T09:32:16.229Z,23.60
2023-10-26T09:34:46.268Z,23.60
2023-10-26T09:37:14.455Z,23.60
2023-10-26T09:39:43.663Z,23.50
2023-10-26T09:42:12.617Z,23.60
2023-10-26T09:44:40.868Z,23.60
2023-10-26T09:47:08.090Z,23.50
2023-10-26T09:49:36.508Z,23.60
2023-10-26T09:52:05.161Z,23.50
2023-10-26T09:54:44.187Z,23.60
2023-10-26T09:57:17.637Z,23.60
2023-10-26T09:59:45.628Z,23.50
2023-10-26T10:02:17.524Z,23.50
2023-10-26T10:04:46.762Z,23.50
2023-10-26T10:07:18.253Z,23.60
2023-10-26T10:10:07.362Z,23.50
2023-10-26T10:12:36.917Z,23.50
2023-10-26T10:15:29.058Z,23.60
2023-10-26T10:18:14.108Z,23.60
2023-10-26T10:20:43.143Z,23.60
2023-10-26T10:23:28.975Z,23.60
2023-10-26T10:28:52.410Z,23.50
2023-10-26T10:31:25.349Z,23.40
2023-10-26T10:34:06.904Z,23.30
2023-10-26T10:37:12.862Z,23.20
2023-10-26T10:40:02.042Z,23.10
2023-10-26T10:42:32.759Z,23.00
2023-10-26T10:45:02.062Z,23.00
2023-10-26T10:47:31.386Z,23.00
2023-10-26T10:50:17.318Z,23.00
2023-10-26T10:52:45.331Z,23.00
2023-10-26T10:55:13.414Z,23.00
2023-10-26T10:57:56.214Z,23.10
2023-10-26T11:00:25.502Z,23.10
2023-10-26T11:02:57.923Z,23.10
2023-10-26T11:05:37.469Z,23.20
2023-10-26T11:08:06.861Z,23.20
2023-10-26T11:10:34.841Z,23.20
2023-10-26T11:13:04.404Z,23.20
2023-10-26T11:15:33.400Z,23.20
2023-10-26T11:18:02.052Z,23.20
2023-10-26T11:20:38.376Z,23.20
2023-10-26T11:23:06.374Z,23.20
2023-10-26T11:25:34.424Z,23.20
2023-10-26T11:28:04.484Z,23.30
2023-10-26T11:30:32.960Z,23.30
2023-10-26T11:33:00.868Z,23.30
2023-10-26T11:35:28.702Z,23.30
2023-10-26T11:38:06.605Z,23.30
2023-10-26T11:40:34.553Z,23.30
2023-10-26T11:43:05.199Z,23.30
2023-10-26T11:45:49.813Z,23.30
2023-10-26T11:48:27.738Z,23.30
2023-10-26T11:50:55.837Z,23.30
2023-10-26T11:53:24.396Z,23.30
2023-10-26T11:55:52.767Z,23.30
2023-10-26T11:58:22.137Z,23.30
2023-10-26T12:00:49.951Z,23.30
2023-10-26T12:03:18.314Z,23.30
2023-10-26T12:05:46.128Z,23.30
2023-10-26T12:08:13.875Z,23.30
2023-10-26T12:10:42.360Z,23.30
2023-10-26T12:13:10.134Z,23.30
2023-10-26T12:15:39.254Z,23.30
2023-10-26T12:18:07.211Z,23.30
2023-10-26T12:20:35.014Z,23.30
2023-10-26T12:23:02.801Z,23.30
2023-10-26T12:25:30.678Z,23.30
2023-10-26T12:28:20.949Z,23.40
2023-10-26T12:30:51.407Z,23.40
2023-10-26T12:33:19.567Z,23.40
2023-10-26T12:35:48.339Z,23.40
2023-10-26T12:38:16.399Z,23.40
2023-10-26T12:40:44.316Z,23.40
2023-10-26T12:43:12.057Z,23.40
2023-10-26T12:45:40.657Z,23.40
2023-10-26T12:48:09.822Z,23.40
2023-10-26T12:50:37.631Z,23.40
2023-10-26T12:53:05.760Z,23.30
2023-10-26T12:55:35.341Z,23.40
2023-10-26T12:58:03.132Z,23.40
2023-10-26T13:00:31.484Z,23.40
2023-10-26T13:02:59.491Z,23.40
2023-10-26T13:05:28.608Z,23.40
2023-10-26T13:07:56.358Z,23.40
2023-10-26T13:10:24.109Z,23.40
2023-10-26T13:12:51.930Z,23.40
2023-10-26T13:15:21.151Z,23.40
2023-10-26T13:17:49.926Z,23.40
2023-10-26T13:20:17.955Z,23.40
2023-10-26T13:22:47.086Z,23.40
2023-10-26T13:25:15.190Z,23.30
2023-10-26T13:27:42.981Z,23.40
2023-10-26T13:30:12.248Z,23.30
2023-10-26T13:32:40.332Z,23.30
2023-10-26T13:35:08.621Z,23.30
2023-10-26T13:37:36.518Z,23.30
2023-10-26T13:40:06.694Z,23.30
2023-10-26T13:42:34.520Z,23.30
2023-10-26T13:45:02.408Z,23.30
2023-10-26T13:47:30.175Z,23.30
2023-10-26T13:49:57.995Z,23.30
2023-10-26T13:52:26.143Z,23.30
2023-10-26T13:54:53.901Z,23.30
2023-10-26T13:57:25.278Z,23.30
2023-10-26T13:59:53.163Z,23.30
2023-10-26T14:02:24.529Z,23.30
2023-10-26T14:04:52.438Z,23.30
2023-10-26T14:07:20.190Z,23.30
2023-10-26T14:09:49.926Z,23.30
2023-10-26T14:12:18.518Z,23.30
2023-10-26T14:14:47.625Z,23.30
2023-10-26T14:17:15.368Z,23.30
2023-10-26T14:19:43.204Z,23.30
2023-10-26T14:22:10.987Z,23.30
2023-10-26T14:24:40.073Z,23.30
2023-10-26T14:27:07.866Z,23.30
2023-10-26T14:29:35.698Z,23.30
2023-10-26T14:32:05.258Z,23.30
2023-10-26T14:34:33.115Z,23.30
2023-10-26T14:37:01.127Z,23.30
2023-10-26T14:39:29.193Z,23.30
2023-10-26T14:41:56.915Z,23.30
2023-10-26T14:44:24.694Z,23.30
2023-10-26T14:46:52.486Z,23.30
2023-10-26T14:49:21.624Z,23.30
2023-10-26T14:51:49.833Z,23.30
2023-10-26T14:54:17.775Z,23.30
2023-10-26T14:56:45.516Z,23.30
2023-10-26T14:59:13.275Z,23.30
2023-10-26T15:01:41.080Z,23.30
2023-10-26T15:04:11.389Z,23.30
2023-10-26T15:06:40.547Z,23.30
2023-10-26T15:09:08.309Z,23.30
2023-10-26T15:11:51.856Z,23.30
2023-10-26T15:14:25.395Z,23.30
2023-10-26T15:16:53.818Z,23.30
2023-10-26T15:19:21.974Z,23.30
2023-10-26T15:21:51.116Z,23.30
2023-10-26T15:24:19.470Z,23.30
2023-10-26T15:26:47.224Z,23.30
2023-10-26T15:29:14.990Z,23.30
2023-10-26T15:31:43.651Z,23.30
2023-10-26T15:34:11.461Z,23.30
2023-10-26T15:36:39.262Z,23.30
2023-10-26T15:39:09.842Z,23.30
2023-10-26T15:41:41.020Z,23.30
2023-10-26T15:44:08.804Z,23.30
2023-10-26T15:46:36.680Z,23.30
2023-10-26T15:49:32.519Z,23.30
2023-10-26T15:51:55.099Z,23.30
2023-10-26T15:54:24.288Z,23.30
2023-10-26T15:56:52.158Z,23.30
2023-10-26T15:59:19.926Z,23.30
2023-10-26T16:01:47.738Z,23.30
2023-10-26T16:04:15.511Z,23.30
2023-10-26T16:06:43.798Z,23.30
2023-10-26T16:09:11.622Z,23.30
2023-10-26T16:11:40.802Z,23.30
2023-10-26T16:14:08.694Z,23.30
2023-10-26T16:16:37.363Z,23.30
2023-10-26T16:19:06.000Z,23.30
2023-10-26T16:21:34.090Z,23.30
2023-10-26T16:24:01.918Z,23.30
2023-10-26T16:26:29.676Z,23.30
2023-10-26T16:28:58.802Z,23.40
2023-10-26T16:31:26.579Z,23.40
2023-10-26T16:33:54.543Z,23.40
2023-10-26T16:36:24.491Z,23.40
2023-10-26T16:38:52.348Z,23.40
2023-10-26T16:41:20.392Z,23.40
2023-10-26T16:43:48.295Z,23.40
2023-10-26T16:46:18.988Z,23.40
2023-10-26T16:48:46.925Z,23.40
2023-10-26T16:51:14.779Z,23.40
2023-10-26T16:53:43.712Z,23.50
2023-10-26T16:56:11.760Z,23.40
2023-10-26T16:58:39.642Z,23.40
2023-10-26T17:01:09.354Z,23.40
2023-10-26T17:03:38.820Z,23.40
2023-10-26T17:06:09.537Z,23.40
2023-10-26T17:08:37.269Z,23.40
2023-10-26T17:11:05.401Z,23.40
2023-10-26T17:13:33.168Z,23.40
2023-10-26T17:16:00.985Z,23.40
2023-10-26T17:18:28.815Z,23.40
2023-10-26T17:20:59.013Z,23.40
2023-10-26T17:23:26.883Z,23.40
2023-10-26T17:25:54.788Z,23.40
2023-10-26T17:28:22.573Z,23.40
2023-10-26T17:30:50.454Z,23.40
2023-10-26T17:33:18.656Z,23.40
2023-10-26T17:35:48.692Z,23.40
2023-10-26T17:38:18.066Z,23.40
2023-10-26T17:40:47.001Z,23.40
2023-10-26T17:43:15.055Z,23.40
2023-10-26T17:45:43.032Z,23.40
2023-10-26T17:48:11.625Z,23.40
2023-10-26T17:50:40.948Z,23.40
2023-10-26T17:53:08.880Z,23.40
2023-10-26T17:55:38.041Z,23.40
2023-10-26T17:58:05.805Z,23.40
2023-10-26T18:00:33.575Z,23.40
2023-10-26T18:03:01.390Z,23.40
2023-10-26T18:05:29.154Z,23.40
2023-10-26T18:07:56.909Z,23.40
2023-10-26T18:10:24.661Z,23.40
2023-10-26T18:12:53.805Z,23.30
2023-10-26T18:15:21.720Z,23.30
2023-10-26T18:17:49.477Z,23.40
2023-10-26T18:20:17.374Z,23.40
2023-10-26T18:22:45.949Z,23.40
2023-10-26T18:25:13.740Z,23.40
2023-10-26T18:27:41.541Z,23.40
2023-10-26T18:30:11.884Z,23.40
2023-10-26T18:32:40.068Z,23.40
2023-10-26T18:35:09.153Z,23.40
2023-10-26T18:37:37.370Z,23.40
2023-10-26T18:40:06.911Z,23.40
2023-10-26T18:42:34.711Z,23.40
2023-10-26T18:45:02.476Z,23.40
2023-10-26T18:47:31.611Z,23.40
2023-10-26T18:49:59.513Z,23.40
2023-10-26T18:52:27.257Z,23.40
2023-10-26T18:54:55.702Z,23.40
2023-10-26T18:57:23.492Z,23.40
2023-10-26T18:59:51.222Z,23.40
2023-10-26T19:02:18.974Z,23.40
2023-10-26T19:04:48.038Z,23.40
2023-10-26T19:07:15.854Z,23.40
2023-10-26T19:09:43.822Z,23.30
2023-10-26T19:12:11.822Z,23.40
2023-10-26T19:14:39.713Z,23.40
2023-10-26T19:17:07.464Z,23.40
2023-10-26T19:19:35.255Z,23.40
2023-10-26T19:22:04.533Z,23.40
2023-10-26T19:24:32.291Z,23.40
2023-10-26T19:27:00.243Z,23.40
2023-10-26T19:29:28.004Z,23.40
2023-10-26T19:31:55.796Z,23.30
2023-10-26T19:34:23.573Z,23.40
2023-10-26T19:36:51.434Z,23.40
2023-10-26T19:39:20.572Z,23.40
2023-10-26T19:41:48.317Z,23.40
2023-10-26T19:44:16.159Z,23.30
2023-10-26T19:46:43.996Z,23.40
2023-10-26T19:49:11.885Z,23.40
2023-10-26T19:51:39.699Z,23.30
2023-10-26T19:54:07.531Z,23.40
2023-10-26T19:56:36.606Z,23.40
2023-10-26T19:59:04.776Z,23.40
2023-10-26T20:01:32.676Z,23.40
2023-10-26T20:04:01.126Z,23.40
2023-10-26T20:06:28.875Z,23.40
2023-10-26T20:08:56.694Z,23.40
2023-10-26T20:11:24.452Z,23.40
2023-10-26T20:13:53.577Z,23.30
2023-10-26T20:16:21.410Z,23.30
2023-10-26T20:18:51.237Z,23.30
2023-10-26T20:21:19.158Z,23.30
2023-10-26T20:23:46.916Z,23.30
2023-10-26T20:26:14.697Z,23.30
2023-10-26T20:28:42.461Z,23.30
2023-10-26T20:31:11.647Z,23.30
2023-10-26T20:33:39.482Z,23.30
2023-10-26T20:36:08.171Z,23.30
2023-10-26T20:38:36.016Z,23.30
2023-10-26T20:41:03.866Z,23.30
2023-10-26T20:43:31.684Z,23.30
2023-10-26T20:46:00.723Z,23.30
2023-10-26T20:48:30.460Z,23.30
2023-10-26T20:50:59.930Z,23.30
2023-10-26T20:53:28.835Z,23.30
2023-10-26T20:55:59.926Z,23.30
2023-10-26T20:58:27.757Z,23.30
2023-10-26T21:00:55.550Z,23.30
2023-10-26T21:03:23.593Z,23.30
2023-10-26T21:05:53.124Z,23.30
2023-10-26T21:08:21.784Z,23.20
2023-10-26T21:10:49.569Z,23.30
2023-10-26T21:13:17.424Z,23.30
2023-10-26T21:15:45.327Z,23.20
2023-10-26T21:18:13.206Z,23.30
2023-10-26T21:20:41.430Z,23.30
2023-10-26T21:23:10.526Z,23.30
2023-10-26T21:25:38.275Z,23.20
2023-10-26T21:28:06.088Z,23.30
2023-10-26T21:30:36.198Z,23.20
2023-10-26T21:33:04.379Z,23.20
2023-10-26T21:35:36.992Z,23.20
2023-10-26T21:38:07.431Z,23.20
2023-10-26T21:40:38.990Z,23.20
2023-10-26T21:43:06.812Z,23.20
2023-10-26T21:45:37.106Z,23.20
2023-10-26T21:48:05.315Z,23.20
2023-10-26T21:50:33.836Z,23.20
2023-10-26T21:53:01.684Z,23.20
2023-10-26T21:55:29.453Z,23.20
2023-10-26T21:57:58.637Z,23.20
2023-10-26T22:00:29.027Z,23.20
2023-10-26T22:02:57.347Z,23.20
2023-10-26T22:05:25.187Z,23.20
2023-10-26T22:07:52.938Z,23.20
2023-10-26T22:10:20.734Z,23.20
2023-10-26T22:12:48.619Z,23.20
2023-10-26T22:15:17.801Z,23.20
2023-10-26T22:17:45.632Z,23.20
2023-10-26T22:20:13.500Z,23.20
2023-10-26T22:22:41.242Z,23.20
2023-10-26T22:25:09.337Z,23.20
2023-10-26T22:27:37.146Z,23.20
2023-10-26T22:30:05.741Z,23.20
2023-10-26T22:32:34.901Z,23.20
2023-10-26T22:35:02.743Z,23.20
2023-10-26T22:37:30.660Z,23.10
2023-10-26T22:39:58.446Z,23.20
2023-10-26T22:42:26.196Z,23.20
2023-10-26T22:44:53.968Z,23.20
2023-10-26T22:47:21.716Z,23.20
2023-10-26T22:49:50.931Z,23.20
2023-10-26T22:52:19.093Z,23.20
2023-10-26T22:54:47.074Z,23.20
2023-10-26T22:57:14.833Z,23.20
2023-10-26T22:59:42.694Z,23.20
2023-10-26T23:02:10.965Z,23.20
2023-10-26T23:04:38.838Z,23.20
2023-10-26T23:07:08.161Z,23.20
2023-10-26T23:09:35.977Z,23.20
2023-10-26T23:12:03.856Z,23.20
2023-10-26T23:14:31.632Z,23.20
2023-10-26T23:16:59.613Z,23.20
2023-10-26T23:19:27.965Z,23.20
2023-10-26T23:21:55.786Z,23.20
2023-10-26T23:24:27.469Z,23.20
2023-10-26T23:26:55.646Z,23.20
2023-10-26T23:29:23.796Z,23.20
2023-10-26T23:31:51.576Z,23.20
2023-10-26T23:34:19.722Z,23.20
2023-10-26T23:36:47.688Z,23.20
2023-10-26T23:39:15.610Z,23.10
2023-10-26T23:41:44.847Z,23.10
2023-10-26T23:44:12.605Z,23.10
2023-10-26T23:46:40.358Z,23.10
2023-10-26T23:49:08.172Z,23.10
2023-10-26T23:51:34.976Z,23.10
2023-10-26T23:54:02.733Z,23.10
2023-10-26T23:56:30.478Z,23.10
2023-10-26T23:58:59.973Z,23.10
